This is the latest recevied weather packets stored in our database for station/object OE5HMR-13. If no packets are shown the sender has not sent any weather packets the latest 10 day(s).
| Time | Temp. | Humidity | Pressure | Rain* | Wind** | Luminosity | Snow |
|---|---|---|---|---|---|---|---|
| 1778060728 | 17.78° C | 52% | 1007 hPa | 0 mm | - | - | - |
| 1778058942 | 16.67° C | 56% | 1008 hPa | 0 mm | - | - | - |
| 1778057728 | 16.67° C | 58% | 1008 hPa | 0 mm | - | - | - |
| 1778056531 | 16.11° C | 60% | 1008 hPa | 0 mm | - | - | - |
| 1778051735 | 13.33° C | 72% | 1007.1 hPa | 0 mm | - | - | - |
| 1778048128 | 11.11° C | 79% | 1008 hPa | 0 mm | - | - | - |
| 1778042771 | 9.44° C | 82% | 1008 hPa | 0 mm | - | - | - |
| 1778040339 | 8.89° C | 82% | 1008 hPa | 0 mm | - | - | - |
| 1778038549 | 8.33° C | 82% | 1008 hPa | 0 mm | - | - | - |
| 1778035535 | 8.89° C | 76% | 1007 hPa | 0 mm | - | - | - |
| 1778034927 | 8.89° C | 75% | 1008 hPa | 0 mm | - | - | - |
| 1778033727 | 9.44° C | 77% | 1008 hPa | 0 mm | - | - | - |
| 1778031330 | 10° C | 76% | 1008 hPa | 0 mm | - | - | - |
| 1778027738 | 10.56° C | 76% | 1008 hPa | 0 mm | - | - | - |
| 1778018740 | 11.11° C | 73% | 1006.9 hPa | 0 mm | - | - | - |
| 1778017528 | 11.67° C | 71% | 1006.9 hPa | 0 mm | - | - | - |
| 1778013329 | 12.78° C | 68% | 1006.9 hPa | 0 mm | - | - | - |
| 1778010945 | 13.89° C | 62% | 1006.9 hPa | 0 mm | - | - | - |
| 1778003133 | 20° C | 31% | 1004.9 hPa | 0 mm | - | - | - |
| 1777986328 | 23.89° C | 29% | 1006.9 hPa | 0 mm | - | - | - |
| 1777982727 | 24.44° C | 30% | 1008 hPa | 0 mm | - | - | - |
| 1777979725 | 23.89° C | 33% | 1008 hPa | 0 mm | - | - | - |
| 1777974930 | 22.22° C | 36% | 1008 hPa | 0 mm | - | - | - |
| 1777971945 | 21.67° C | 33% | 1008 hPa | 0 mm | - | - | - |
| 1777971328 | 21.67° C | 37% | 1009.1 hPa | 0 mm | - | - | - |
* Rain latest hour (hover to see other rain measurements)
** Current wind speed in m/s (hover to see current wind gust speed)